sensor_id;sensor_type;location;lat;lon;timestamp;temperature;humidity
57576;DHT22;43412;-33.800;150.804;2023-01-09T00:00:06;29.40;90.80
57576;DHT22;43412;-33.800;150.804;2023-01-09T00:02:33;29.30;91.00
57576;DHT22;43412;-33.800;150.804;2023-01-09T00:05:00;29.20;91.70
57576;DHT22;43412;-33.800;150.804;2023-01-09T00:07:27;29.40;90.70
57576;DHT22;43412;-33.800;150.804;2023-01-09T00:09:53;29.30;90.60
57576;DHT22;43412;-33.800;150.804;2023-01-09T00:12:20;29.50;90.70
57576;DHT22;43412;-33.800;150.804;2023-01-09T00:14:46;29.50;90.00
57576;DHT22;43412;-33.800;150.804;2023-01-09T00:17:13;29.50;90.80
57576;DHT22;43412;-33.800;150.804;2023-01-09T00:19:40;29.60;90.70
57576;DHT22;43412;-33.800;150.804;2023-01-09T00:22:06;30.00;90.80
57576;DHT22;43412;-33.800;150.804;2023-01-09T00:24:37;30.40;91.00
57576;DHT22;43412;-33.800;150.804;2023-01-09T00:27:04;30.80;90.10
57576;DHT22;43412;-33.800;150.804;2023-01-09T00:29:30;30.60;87.60
57576;DHT22;43412;-33.800;150.804;2023-01-09T00:31:57;30.30;89.40
57576;DHT22;43412;-33.800;150.804;2023-01-09T00:34:24;30.30;89.10
57576;DHT22;43412;-33.800;150.804;2023-01-09T00:36:51;30.30;88.70
57576;DHT22;43412;-33.800;150.804;2023-01-09T00:39:20;30.40;88.10
57576;DHT22;43412;-33.800;150.804;2023-01-09T00:41:49;30.40;89.10
57576;DHT22;43412;-33.800;150.804;2023-01-09T00:46:46;30.70;88.20
57576;DHT22;43412;-33.800;150.804;2023-01-09T00:49:13;31.20;88.60
57576;DHT22;43412;-33.800;150.804;2023-01-09T00:51:41;31.50;86.80
57576;DHT22;43412;-33.800;150.804;2023-01-09T00:54:08;31.70;85.00
57576;DHT22;43412;-33.800;150.804;2023-01-09T00:56:35;32.00;85.70
57576;DHT22;43412;-33.800;150.804;2023-01-09T00:59:03;32.20;82.40
57576;DHT22;43412;-33.800;150.804;2023-01-09T01:01:29;32.00;84.10
57576;DHT22;43412;-33.800;150.804;2023-01-09T01:03:56;32.30;84.50
57576;DHT22;43412;-33.800;150.804;2023-01-09T01:06:23;32.60;84.20
57576;DHT22;43412;-33.800;150.804;2023-01-09T01:09:08;32.70;82.10
57576;DHT22;43412;-33.800;150.804;2023-01-09T01:11:34;32.90;83.20
57576;DHT22;43412;-33.800;150.804;2023-01-09T01:14:01;32.70;81.60
57576;DHT22;43412;-33.800;150.804;2023-01-09T01:16:28;32.40;82.20
57576;DHT22;43412;-33.800;150.804;2023-01-09T01:18:55;32.10;82.00
57576;DHT22;43412;-33.800;150.804;2023-01-09T01:21:21;32.30;84.90
57576;DHT22;43412;-33.800;150.804;2023-01-09T01:23:48;32.60;80.90
57576;DHT22;43412;-33.800;150.804;2023-01-09T01:26:15;32.40;82.30
57576;DHT22;43412;-33.800;150.804;2023-01-09T01:28:42;32.70;83.50
57576;DHT22;43412;-33.800;150.804;2023-01-09T01:31:14;33.00;82.10
57576;DHT22;43412;-33.800;150.804;2023-01-09T01:33:41;33.30;81.10
57576;DHT22;43412;-33.800;150.804;2023-01-09T01:36:08;33.60;80.10
57576;DHT22;43412;-33.800;150.804;2023-01-09T01:38:35;33.70;82.00
57576;DHT22;43412;-33.800;150.804;2023-01-09T01:41:02;34.00;84.40
57576;DHT22;43412;-33.800;150.804;2023-01-09T01:43:48;34.20;83.40
57576;DHT22;43412;-33.800;150.804;2023-01-09T01:46:16;34.40;81.50
57576;DHT22;43412;-33.800;150.804;2023-01-09T01:48:43;34.60;80.00
57576;DHT22;43412;-33.800;150.804;2023-01-09T01:51:09;34.60;81.10
57576;DHT22;43412;-33.800;150.804;2023-01-09T01:53:40;34.60;78.40
57576;DHT22;43412;-33.800;150.804;2023-01-09T01:56:18;34.80;78.40
57576;DHT22;43412;-33.800;150.804;2023-01-09T01:58:47;34.90;78.80
57576;DHT22;43412;-33.800;150.804;2023-01-09T02:01:20;34.60;75.60
57576;DHT22;43412;-33.800;150.804;2023-01-09T02:03:48;34.40;75.60
57576;DHT22;43412;-33.800;150.804;2023-01-09T02:06:15;34.50;76.60
57576;DHT22;43412;-33.800;150.804;2023-01-09T02:08:42;34.60;77.50
57576;DHT22;43412;-33.800;150.804;2023-01-09T02:11:09;34.70;78.40
57576;DHT22;43412;-33.800;150.804;2023-01-09T02:13:38;34.80;76.30
57576;DHT22;43412;-33.800;150.804;2023-01-09T02:16:25;34.90;76.30
57576;DHT22;43412;-33.800;150.804;2023-01-09T02:24:33;35.30;77.40
57576;DHT22;43412;-33.800;150.804;2023-01-09T02:42:42;35.40;77.00
57576;DHT22;43412;-33.800;150.804;2023-01-09T02:45:09;35.40;76.10
57576;DHT22;43412;-33.800;150.804;2023-01-09T02:47:40;35.30;74.60
57576;DHT22;43412;-33.800;150.804;2023-01-09T02:50:19;34.80;74.00
57576;DHT22;43412;-33.800;150.804;2023-01-09T02:58:29;34.90;77.10
57576;DHT22;43412;-33.800;150.804;2023-01-09T03:01:14;35.30;77.50
57576;DHT22;43412;-33.800;150.804;2023-01-09T03:03:46;35.70;78.50
57576;DHT22;43412;-33.800;150.804;2023-01-09T03:09:03;36.10;75.60
57576;DHT22;43412;-33.800;150.804;2023-01-09T03:11:29;35.90;74.10
57576;DHT22;43412;-33.800;150.804;2023-01-09T03:14:01;36.00;76.40
57576;DHT22;43412;-33.800;150.804;2023-01-09T03:16:30;36.20;74.70
57576;DHT22;43412;-33.800;150.804;2023-01-09T03:18:58;36.40;73.80
57576;DHT22;43412;-33.800;150.804;2023-01-09T03:21:26;36.50;73.20
57576;DHT22;43412;-33.800;150.804;2023-01-09T03:23:57;36.60;73.70
57576;DHT22;43412;-33.800;150.804;2023-01-09T03:26:24;36.40;73.80
57576;DHT22;43412;-33.800;150.804;2023-01-09T03:28:51;36.20;73.30
57576;DHT22;43412;-33.800;150.804;2023-01-09T03:31:17;36.20;76.20
57576;DHT22;43412;-33.800;150.804;2023-01-09T03:33:44;36.20;74.80
57576;DHT22;43412;-33.800;150.804;2023-01-09T03:36:11;36.40;73.90
57576;DHT22;43412;-33.800;150.804;2023-01-09T03:38:38;36.50;74.10
57576;DHT22;43412;-33.800;150.804;2023-01-09T03:41:05;36.40;75.60
57576;DHT22;43412;-33.800;150.804;2023-01-09T03:43:32;36.30;76.20
57576;DHT22;43412;-33.800;150.804;2023-01-09T03:45:59;36.00;76.60
57576;DHT22;43412;-33.800;150.804;2023-01-09T03:48:25;35.90;77.00
57576;DHT22;43412;-33.800;150.804;2023-01-09T03:50:53;35.70;76.70
57576;DHT22;43412;-33.800;150.804;2023-01-09T03:53:20;35.60;76.50
57576;DHT22;43412;-33.800;150.804;2023-01-09T03:55:48;35.20;78.30
57576;DHT22;43412;-33.800;150.804;2023-01-09T03:58:16;35.00;78.20
57576;DHT22;43412;-33.800;150.804;2023-01-09T04:00:43;35.10;78.20
57576;DHT22;43412;-33.800;150.804;2023-01-09T04:03:18;35.00;77.20
57576;DHT22;43412;-33.800;150.804;2023-01-09T04:05:45;34.80;76.60
57576;DHT22;43412;-33.800;150.804;2023-01-09T04:08:12;34.70;78.20
57576;DHT22;43412;-33.800;150.804;2023-01-09T04:10:39;34.80;78.10
57576;DHT22;43412;-33.800;150.804;2023-01-09T04:13:06;34.80;78.80
57576;DHT22;43412;-33.800;150.804;2023-01-09T04:15:32;34.60;78.80
57576;DHT22;43412;-33.800;150.804;2023-01-09T04:17:59;34.60;78.80
57576;DHT22;43412;-33.800;150.804;2023-01-09T04:20:26;34.50;79.20
57576;DHT22;43412;-33.800;150.804;2023-01-09T04:22:53;34.40;79.10
57576;DHT22;43412;-33.800;150.804;2023-01-09T04:25:20;34.20;80.20
57576;DHT22;43412;-33.800;150.804;2023-01-09T04:27:49;34.00;79.70
57576;DHT22;43412;-33.800;150.804;2023-01-09T04:30:16;33.90;80.80
57576;DHT22;43412;-33.800;150.804;2023-01-09T04:32:43;33.80;79.70
57576;DHT22;43412;-33.800;150.804;2023-01-09T04:35:09;33.70;80.80
57576;DHT22;43412;-33.800;150.804;2023-01-09T04:37:36;33.50;80.60
57576;DHT22;43412;-33.800;150.804;2023-01-09T04:40:04;33.30;81.10
57576;DHT22;43412;-33.800;150.804;2023-01-09T04:42:34;33.20;81.60
57576;DHT22;43412;-33.800;150.804;2023-01-09T04:45:00;33.10;82.00
57576;DHT22;43412;-33.800;150.804;2023-01-09T04:47:27;33.00;82.70
57576;DHT22;43412;-33.800;150.804;2023-01-09T04:49:56;32.90;82.50
57576;DHT22;43412;-33.800;150.804;2023-01-09T04:52:22;32.80;82.50
57576;DHT22;43412;-33.800;150.804;2023-01-09T04:54:49;32.90;81.90
57576;DHT22;43412;-33.800;150.804;2023-01-09T04:57:16;32.90;82.20
57576;DHT22;43412;-33.800;150.804;2023-01-09T04:59:43;32.70;81.60
57576;DHT22;43412;-33.800;150.804;2023-01-09T05:02:10;32.70;81.70
57576;DHT22;43412;-33.800;150.804;2023-01-09T05:04:37;32.60;81.40
57576;DHT22;43412;-33.800;150.804;2023-01-09T05:07:03;32.50;80.80
57576;DHT22;43412;-33.800;150.804;2023-01-09T05:09:30;32.40;81.90
57576;DHT22;43412;-33.800;150.804;2023-01-09T05:11:56;32.30;82.00
57576;DHT22;43412;-33.800;150.804;2023-01-09T05:14:24;32.40;81.20
57576;DHT22;43412;-33.800;150.804;2023-01-09T05:16:50;32.40;80.90
57576;DHT22;43412;-33.800;150.804;2023-01-09T05:19:17;32.30;81.40
57576;DHT22;43412;-33.800;150.804;2023-01-09T05:21:44;32.30;81.10
57576;DHT22;43412;-33.800;150.804;2023-01-09T05:24:10;32.30;81.10
57576;DHT22;43412;-33.800;150.804;2023-01-09T05:26:37;32.10;81.20
57576;DHT22;43412;-33.800;150.804;2023-01-09T05:29:04;32.00;82.30
57576;DHT22;43412;-33.800;150.804;2023-01-09T05:31:30;31.90;81.80
57576;DHT22;43412;-33.800;150.804;2023-01-09T05:33:57;31.80;81.50
57576;DHT22;43412;-33.800;150.804;2023-01-09T05:36:25;31.60;82.20
57576;DHT22;43412;-33.800;150.804;2023-01-09T05:38:53;31.50;83.40
57576;DHT22;43412;-33.800;150.804;2023-01-09T05:41:19;31.50;83.20
57576;DHT22;43412;-33.800;150.804;2023-01-09T05:43:46;31.40;83.70
57576;DHT22;43412;-33.800;150.804;2023-01-09T05:46:13;31.50;83.80
57576;DHT22;43412;-33.800;150.804;2023-01-09T05:48:40;31.50;84.40
57576;DHT22;43412;-33.800;150.804;2023-01-09T05:51:06;31.30;84.00
57576;DHT22;43412;-33.800;150.804;2023-01-09T05:53:33;31.40;84.70
57576;DHT22;43412;-33.800;150.804;2023-01-09T05:55:59;31.40;84.30
57576;DHT22;43412;-33.800;150.804;2023-01-09T05:58:26;31.40;85.30
57576;DHT22;43412;-33.800;150.804;2023-01-09T06:00:53;31.40;84.30
57576;DHT22;43412;-33.800;150.804;2023-01-09T06:03:20;31.30;84.50
57576;DHT22;43412;-33.800;150.804;2023-01-09T06:05:46;31.20;85.10
57576;DHT22;43412;-33.800;150.804;2023-01-09T06:08:13;31.10;85.60
57576;DHT22;43412;-33.800;150.804;2023-01-09T06:10:40;31.20;85.10
57576;DHT22;43412;-33.800;150.804;2023-01-09T06:13:06;31.20;84.90
57576;DHT22;43412;-33.800;150.804;2023-01-09T06:15:33;31.10;84.70
57576;DHT22;43412;-33.800;150.804;2023-01-09T06:17:59;31.00;84.60
57576;DHT22;43412;-33.800;150.804;2023-01-09T06:20:26;30.80;85.10
57576;DHT22;43412;-33.800;150.804;2023-01-09T06:22:53;30.70;85.60
57576;DHT22;43412;-33.800;150.804;2023-01-09T06:25:19;30.60;85.50
57576;DHT22;43412;-33.800;150.804;2023-01-09T06:27:46;30.40;85.90
57576;DHT22;43412;-33.800;150.804;2023-01-09T06:30:13;30.40;86.40
57576;DHT22;43412;-33.800;150.804;2023-01-09T06:32:40;30.40;86.60
57576;DHT22;43412;-33.800;150.804;2023-01-09T06:35:07;30.40;86.60
57576;DHT22;43412;-33.800;150.804;2023-01-09T06:37:37;30.30;86.80
57576;DHT22;43412;-33.800;150.804;2023-01-09T06:40:04;30.20;87.20
57576;DHT22;43412;-33.800;150.804;2023-01-09T06:42:30;30.00;87.20
57576;DHT22;43412;-33.800;150.804;2023-01-09T06:44:57;29.90;87.20
57576;DHT22;43412;-33.800;150.804;2023-01-09T06:47:24;29.80;87.90
57576;DHT22;43412;-33.800;150.804;2023-01-09T06:49:51;29.80;88.00
57576;DHT22;43412;-33.800;150.804;2023-01-09T06:52:17;29.70;87.90
57576;DHT22;43412;-33.800;150.804;2023-01-09T06:54:44;29.70;88.40
57576;DHT22;43412;-33.800;150.804;2023-01-09T06:57:11;29.60;88.10
57576;DHT22;43412;-33.800;150.804;2023-01-09T06:59:39;29.60;88.40
57576;DHT22;43412;-33.800;150.804;2023-01-09T07:02:08;29.40;88.40
57576;DHT22;43412;-33.800;150.804;2023-01-09T07:04:40;29.30;88.50
57576;DHT22;43412;-33.800;150.804;2023-01-09T07:07:06;29.10;88.40
57576;DHT22;43412;-33.800;150.804;2023-01-09T07:09:33;29.10;88.40
57576;DHT22;43412;-33.800;150.804;2023-01-09T07:12:00;29.00;89.60
57576;DHT22;43412;-33.800;150.804;2023-01-09T07:14:26;28.90;89.80
57576;DHT22;43412;-33.800;150.804;2023-01-09T07:16:53;28.80;89.90
57576;DHT22;43412;-33.800;150.804;2023-01-09T07:19:20;28.70;90.00
57576;DHT22;43412;-33.800;150.804;2023-01-09T07:21:46;28.60;89.60
57576;DHT22;43412;-33.800;150.804;2023-01-09T07:24:13;28.50;89.50
57576;DHT22;43412;-33.800;150.804;2023-01-09T07:26:40;28.40;89.70
57576;DHT22;43412;-33.800;150.804;2023-01-09T07:29:06;28.20;90.00
57576;DHT22;43412;-33.800;150.804;2023-01-09T07:31:33;28.20;90.00
57576;DHT22;43412;-33.800;150.804;2023-01-09T07:34:00;28.10;89.60
57576;DHT22;43412;-33.800;150.804;2023-01-09T07:36:26;28.00;90.00
57576;DHT22;43412;-33.800;150.804;2023-01-09T07:38:53;28.00;89.90
57576;DHT22;43412;-33.800;150.804;2023-01-09T07:41:20;28.00;90.10
57576;DHT22;43412;-33.800;150.804;2023-01-09T07:43:46;27.90;90.10
57576;DHT22;43412;-33.800;150.804;2023-01-09T07:46:13;27.90;89.90
57576;DHT22;43412;-33.800;150.804;2023-01-09T07:48:40;27.80;89.70
57576;DHT22;43412;-33.800;150.804;2023-01-09T07:51:06;27.70;89.70
57576;DHT22;43412;-33.800;150.804;2023-01-09T07:53:35;27.70;89.40
57576;DHT22;43412;-33.800;150.804;2023-01-09T07:56:01;27.60;89.10
57576;DHT22;43412;-33.800;150.804;2023-01-09T07:58:28;27.60;89.80
57576;DHT22;43412;-33.800;150.804;2023-01-09T08:00:55;27.50;89.80
57576;DHT22;43412;-33.800;150.804;2023-01-09T08:03:21;27.40;90.00
57576;DHT22;43412;-33.800;150.804;2023-01-09T08:05:48;27.40;90.40
57576;DHT22;43412;-33.800;150.804;2023-01-09T08:08:15;27.20;90.40
57576;DHT22;43412;-33.800;150.804;2023-01-09T08:10:42;27.20;90.40
57576;DHT22;43412;-33.800;150.804;2023-01-09T08:13:09;27.10;90.30
57576;DHT22;43412;-33.800;150.804;2023-01-09T08:15:35;27.00;90.20
57576;DHT22;43412;-33.800;150.804;2023-01-09T08:18:02;26.90;90.20
57576;DHT22;43412;-33.800;150.804;2023-01-09T08:20:29;26.90;90.40
57576;DHT22;43412;-33.800;150.804;2023-01-09T08:22:56;26.80;90.50
57576;DHT22;43412;-33.800;150.804;2023-01-09T08:25:22;26.70;90.40
57576;DHT22;43412;-33.800;150.804;2023-01-09T08:27:49;26.60;90.60
57576;DHT22;43412;-33.800;150.804;2023-01-09T08:30:16;26.50;90.50
57576;DHT22;43412;-33.800;150.804;2023-01-09T08:32:43;26.30;90.60
57576;DHT22;43412;-33.800;150.804;2023-01-09T08:35:13;26.10;91.20
57576;DHT22;43412;-33.800;150.804;2023-01-09T08:37:43;25.90;91.00
57576;DHT22;43412;-33.800;150.804;2023-01-09T08:40:11;25.80;91.10
57576;DHT22;43412;-33.800;150.804;2023-01-09T08:42:38;25.70;91.30
57576;DHT22;43412;-33.800;150.804;2023-01-09T08:45:23;25.50;91.50
57576;DHT22;43412;-33.800;150.804;2023-01-09T08:48:07;25.40;91.90
57576;DHT22;43412;-33.800;150.804;2023-01-09T08:50:34;25.30;92.10
57576;DHT22;43412;-33.800;150.804;2023-01-09T08:53:01;25.20;91.50
57576;DHT22;43412;-33.800;150.804;2023-01-09T08:55:27;25.10;91.30
57576;DHT22;43412;-33.800;150.804;2023-01-09T08:57:54;25.00;91.20
57576;DHT22;43412;-33.800;150.804;2023-01-09T09:00:22;25.00;91.30
57576;DHT22;43412;-33.800;150.804;2023-01-09T09:02:52;24.90;91.40
57576;DHT22;43412;-33.800;150.804;2023-01-09T09:05:19;24.80;91.60
57576;DHT22;43412;-33.800;150.804;2023-01-09T09:07:47;24.70;91.80
57576;DHT22;43412;-33.800;150.804;2023-01-09T09:10:17;24.60;92.00
57576;DHT22;43412;-33.800;150.804;2023-01-09T09:12:48;24.60;92.20
57576;DHT22;43412;-33.800;150.804;2023-01-09T09:15:16;24.50;92.40
57576;DHT22;43412;-33.800;150.804;2023-01-09T09:17:49;24.40;92.70
57576;DHT22;43412;-33.800;150.804;2023-01-09T09:20:16;24.30;93.10
57576;DHT22;43412;-33.800;150.804;2023-01-09T09:22:44;24.20;93.20
57576;DHT22;43412;-33.800;150.804;2023-01-09T09:25:10;24.10;93.50
57576;DHT22;43412;-33.800;150.804;2023-01-09T09:27:37;24.00;93.50
57576;DHT22;43412;-33.800;150.804;2023-01-09T09:30:05;23.90;93.70
57576;DHT22;43412;-33.800;150.804;2023-01-09T09:32:31;23.70;94.10
57576;DHT22;43412;-33.800;150.804;2023-01-09T09:34:58;23.70;94.10
57576;DHT22;43412;-33.800;150.804;2023-01-09T09:37:25;23.60;94.30
57576;DHT22;43412;-33.800;150.804;2023-01-09T09:39:51;23.50;93.80
57576;DHT22;43412;-33.800;150.804;2023-01-09T09:47:43;23.20;93.40
57576;DHT22;43412;-33.800;150.804;2023-01-09T09:50:20;23.20;93.90
57576;DHT22;43412;-33.800;150.804;2023-01-09T09:55:29;23.20;94.00
57576;DHT22;43412;-33.800;150.804;2023-01-09T09:57:57;23.10;94.40
57576;DHT22;43412;-33.800;150.804;2023-01-09T10:00:25;23.00;94.60
57576;DHT22;43412;-33.800;150.804;2023-01-09T10:05:35;22.80;94.90
57576;DHT22;43412;-33.800;150.804;2023-01-09T10:08:26;22.70;95.30
57576;DHT22;43412;-33.800;150.804;2023-01-09T10:10:51;22.70;95.50
57576;DHT22;43412;-33.800;150.804;2023-01-09T10:13:22;22.70;95.80
57576;DHT22;43412;-33.800;150.804;2023-01-09T10:16:18;22.70;96.00
57576;DHT22;43412;-33.800;150.804;2023-01-09T10:21:47;22.70;96.20
57576;DHT22;43412;-33.800;150.804;2023-01-09T10:24:27;22.60;96.70
57576;DHT22;43412;-33.800;150.804;2023-01-09T10:26:56;22.50;96.90
57576;DHT22;43412;-33.800;150.804;2023-01-09T10:32:06;22.30;97.10
57576;DHT22;43412;-33.800;150.804;2023-01-09T10:37:12;22.10;97.50
57576;DHT22;43412;-33.800;150.804;2023-01-09T10:39:43;21.90;98.00
57576;DHT22;43412;-33.800;150.804;2023-01-09T10:42:25;21.90;98.40
57576;DHT22;43412;-33.800;150.804;2023-01-09T10:44:58;21.80;98.60
57576;DHT22;43412;-33.800;150.804;2023-01-09T10:47:32;21.70;98.90
57576;DHT22;43412;-33.800;150.804;2023-01-09T10:49:59;21.70;99.00
57576;DHT22;43412;-33.800;150.804;2023-01-09T10:52:34;21.60;99.00
57576;DHT22;43412;-33.800;150.804;2023-01-09T10:55:12;21.50;99.20
57576;DHT22;43412;-33.800;150.804;2023-01-09T10:57:44;21.50;99.60
57576;DHT22;43412;-33.800;150.804;2023-01-09T11:00:13;21.40;99.90
57576;DHT22;43412;-33.800;150.804;2023-01-09T11:02:40;21.20;99.90
57576;DHT22;43412;-33.800;150.804;2023-01-09T11:05:10;21.10;99.90
57576;DHT22;43412;-33.800;150.804;2023-01-09T11:07:38;21.10;99.90
57576;DHT22;43412;-33.800;150.804;2023-01-09T11:10:06;20.90;99.90
57576;DHT22;43412;-33.800;150.804;2023-01-09T11:12:34;20.90;99.90
57576;DHT22;43412;-33.800;150.804;2023-01-09T11:17:52;20.70;99.90
57576;DHT22;43412;-33.800;150.804;2023-01-09T11:20:22;20.60;99.90
57576;DHT22;43412;-33.800;150.804;2023-01-09T11:22:52;20.50;99.90
57576;DHT22;43412;-33.800;150.804;2023-01-09T11:25:21;20.50;99.90
57576;DHT22;43412;-33.800;150.804;2023-01-09T11:28:04;20.50;99.90
57576;DHT22;43412;-33.800;150.804;2023-01-09T11:30:34;20.50;99.90
57576;DHT22;43412;-33.800;150.804;2023-01-09T11:33:12;20.50;99.90
57576;DHT22;43412;-33.800;150.804;2023-01-09T11:35:53;20.40;99.90
57576;DHT22;43412;-33.800;150.804;2023-01-09T11:38:20;20.30;99.90
57576;DHT22;43412;-33.800;150.804;2023-01-09T11:43:16;20.20;99.90
57576;DHT22;43412;-33.800;150.804;2023-01-09T11:45:45;20.10;99.90
57576;DHT22;43412;-33.800;150.804;2023-01-09T11:51:15;19.90;99.90
57576;DHT22;43412;-33.800;150.804;2023-01-09T11:53:47;19.90;99.90
57576;DHT22;43412;-33.800;150.804;2023-01-09T11:56:16;19.80;99.90
57576;DHT22;43412;-33.800;150.804;2023-01-09T11:58:43;19.80;99.90
57576;DHT22;43412;-33.800;150.804;2023-01-09T12:04:01;19.70;99.90
57576;DHT22;43412;-33.800;150.804;2023-01-09T12:06:38;19.70;99.90
57576;DHT22;43412;-33.800;150.804;2023-01-09T12:12:10;19.60;99.90
57576;DHT22;43412;-33.800;150.804;2023-01-09T12:25:11;19.60;99.90
57576;DHT22;43412;-33.800;150.804;2023-01-09T12:38:26;19.30;99.90
57576;DHT22;43412;-33.800;150.804;2023-01-09T12:41:12;19.30;99.90
57576;DHT22;43412;-33.800;150.804;2023-01-09T12:46:17;19.20;99.90
57576;DHT22;43412;-33.800;150.804;2023-01-09T12:48:52;19.20;99.90
57576;DHT22;43412;-33.800;150.804;2023-01-09T12:53:54;19.00;99.90
57576;DHT22;43412;-33.800;150.804;2023-01-09T12:56:23;19.00;99.90
57576;DHT22;43412;-33.800;150.804;2023-01-09T12:58:59;19.10;99.90
57576;DHT22;43412;-33.800;150.804;2023-01-09T13:01:28;19.00;99.90
57576;DHT22;43412;-33.800;150.804;2023-01-09T13:06:27;18.90;99.90
57576;DHT22;43412;-33.800;150.804;2023-01-09T13:09:05;18.80;99.90
57576;DHT22;43412;-33.800;150.804;2023-01-09T13:12:14;18.80;99.90
57576;DHT22;43412;-33.800;150.804;2023-01-09T13:17:19;18.60;99.90
57576;DHT22;43412;-33.800;150.804;2023-01-09T13:19:47;18.50;99.90
57576;DHT22;43412;-33.800;150.804;2023-01-09T13:22:14;18.50;99.90
57576;DHT22;43412;-33.800;150.804;2023-01-09T13:27:21;18.30;99.90
57576;DHT22;43412;-33.800;150.804;2023-01-09T13:29:51;18.30;99.90
57576;DHT22;43412;-33.800;150.804;2023-01-09T13:34:49;18.30;99.90
57576;DHT22;43412;-33.800;150.804;2023-01-09T13:39:53;18.20;99.90
57576;DHT22;43412;-33.800;150.804;2023-01-09T13:42:20;18.20;99.90
57576;DHT22;43412;-33.800;150.804;2023-01-09T13:47:36;18.20;99.90
57576;DHT22;43412;-33.800;150.804;2023-01-09T13:52:42;18.20;99.90
57576;DHT22;43412;-33.800;150.804;2023-01-09T13:58:26;18.20;99.90
57576;DHT22;43412;-33.800;150.804;2023-01-09T14:02:55;18.10;99.90
57576;DHT22;43412;-33.800;150.804;2023-01-09T14:08:05;18.00;99.90
57576;DHT22;43412;-33.800;150.804;2023-01-09T14:10:36;18.00;99.90
57576;DHT22;43412;-33.800;150.804;2023-01-09T14:15:48;17.90;99.90
57576;DHT22;43412;-33.800;150.804;2023-01-09T14:18:17;17.90;99.90
57576;DHT22;43412;-33.800;150.804;2023-01-09T14:20:46;17.90;99.90
57576;DHT22;43412;-33.800;150.804;2023-01-09T14:23:21;17.90;99.90
57576;DHT22;43412;-33.800;150.804;2023-01-09T14:25:49;17.90;99.90
57576;DHT22;43412;-33.800;150.804;2023-01-09T14:28:19;17.90;99.90
57576;DHT22;43412;-33.800;150.804;2023-01-09T14:43:55;17.80;99.90
57576;DHT22;43412;-33.800;150.804;2023-01-09T14:46:19;17.70;99.90
57576;DHT22;43412;-33.800;150.804;2023-01-09T14:49:05;17.70;99.90
57576;DHT22;43412;-33.800;150.804;2023-01-09T14:51:33;17.70;99.90
57576;DHT22;43412;-33.800;150.804;2023-01-09T14:54:02;17.60;99.90
57576;DHT22;43412;-33.800;150.804;2023-01-09T14:56:31;17.60;99.90
57576;DHT22;43412;-33.800;150.804;2023-01-09T14:59:32;17.50;99.90
57576;DHT22;43412;-33.800;150.804;2023-01-09T15:01:52;17.50;99.90
57576;DHT22;43412;-33.800;150.804;2023-01-09T15:04:24;17.50;99.90
57576;DHT22;43412;-33.800;150.804;2023-01-09T15:06:52;17.40;99.90
57576;DHT22;43412;-33.800;150.804;2023-01-09T15:09:21;17.40;99.90
57576;DHT22;43412;-33.800;150.804;2023-01-09T15:11:49;17.40;99.90
57576;DHT22;43412;-33.800;150.804;2023-01-09T15:14:29;17.30;99.90
57576;DHT22;43412;-33.800;150.804;2023-01-09T15:16:57;17.30;99.90
57576;DHT22;43412;-33.800;150.804;2023-01-09T15:19:25;17.30;99.90
57576;DHT22;43412;-33.800;150.804;2023-01-09T15:22:00;17.20;99.90
57576;DHT22;43412;-33.800;150.804;2023-01-09T15:24:27;17.30;99.90
57576;DHT22;43412;-33.800;150.804;2023-01-09T15:26:56;17.20;99.90
57576;DHT22;43412;-33.800;150.804;2023-01-09T15:29:23;17.20;99.90
57576;DHT22;43412;-33.800;150.804;2023-01-09T15:31:59;17.10;99.90
57576;DHT22;43412;-33.800;150.804;2023-01-09T15:34:27;17.00;99.90
57576;DHT22;43412;-33.800;150.804;2023-01-09T15:36:54;17.00;99.90
57576;DHT22;43412;-33.800;150.804;2023-01-09T15:39:25;16.90;99.90
57576;DHT22;43412;-33.800;150.804;2023-01-09T15:41:53;16.90;99.90
57576;DHT22;43412;-33.800;150.804;2023-01-09T15:44:39;16.90;99.90
57576;DHT22;43412;-33.800;150.804;2023-01-09T15:47:10;16.90;99.90
57576;DHT22;43412;-33.800;150.804;2023-01-09T15:49:39;16.90;99.90
57576;DHT22;43412;-33.800;150.804;2023-01-09T15:52:06;16.90;99.90
57576;DHT22;43412;-33.800;150.804;2023-01-09T15:54:36;16.90;99.90
57576;DHT22;43412;-33.800;150.804;2023-01-09T15:59:46;16.90;99.90
57576;DHT22;43412;-33.800;150.804;2023-01-09T16:02:13;16.90;99.90
57576;DHT22;43412;-33.800;150.804;2023-01-09T16:05:01;17.00;99.90
57576;DHT22;43412;-33.800;150.804;2023-01-09T16:07:30;17.00;99.90
57576;DHT22;43412;-33.800;150.804;2023-01-09T16:09:56;17.00;99.90
57576;DHT22;43412;-33.800;150.804;2023-01-09T16:12:24;16.90;99.90
57576;DHT22;43412;-33.800;150.804;2023-01-09T16:14:57;17.00;99.90
57576;DHT22;43412;-33.800;150.804;2023-01-09T16:17:24;16.90;99.90
57576;DHT22;43412;-33.800;150.804;2023-01-09T16:19:53;16.90;99.90
57576;DHT22;43412;-33.800;150.804;2023-01-09T16:22:24;16.90;99.90
57576;DHT22;43412;-33.800;150.804;2023-01-09T16:24:53;16.80;99.90
57576;DHT22;43412;-33.800;150.804;2023-01-09T16:27:21;16.80;99.90
57576;DHT22;43412;-33.800;150.804;2023-01-09T16:29:52;16.80;99.90
57576;DHT22;43412;-33.800;150.804;2023-01-09T16:33:02;16.80;99.90
57576;DHT22;43412;-33.800;150.804;2023-01-09T16:35:14;16.80;99.90
57576;DHT22;43412;-33.800;150.804;2023-01-09T16:37:42;16.70;99.90
57576;DHT22;43412;-33.800;150.804;2023-01-09T16:42:42;16.70;99.90
57576;DHT22;43412;-33.800;150.804;2023-01-09T16:45:39;16.70;99.90
57576;DHT22;43412;-33.800;150.804;2023-01-09T16:48:16;16.70;99.90
57576;DHT22;43412;-33.800;150.804;2023-01-09T16:50:45;16.60;99.90
57576;DHT22;43412;-33.800;150.804;2023-01-09T16:55:38;16.70;99.90
57576;DHT22;43412;-33.800;150.804;2023-01-09T16:58:07;16.60;99.90
57576;DHT22;43412;-33.800;150.804;2023-01-09T17:00:34;16.60;99.90
57576;DHT22;43412;-33.800;150.804;2023-01-09T17:03:00;16.60;99.90
57576;DHT22;43412;-33.800;150.804;2023-01-09T17:05:28;16.50;99.90
57576;DHT22;43412;-33.800;150.804;2023-01-09T17:07:55;16.50;99.90
57576;DHT22;43412;-33.800;150.804;2023-01-09T17:10:21;16.50;99.90
57576;DHT22;43412;-33.800;150.804;2023-01-09T17:12:48;16.50;99.90
57576;DHT22;43412;-33.800;150.804;2023-01-09T17:15:15;16.50;99.90
57576;DHT22;43412;-33.800;150.804;2023-01-09T17:17:42;16.40;99.90
57576;DHT22;43412;-33.800;150.804;2023-01-09T17:20:12;16.40;99.90